createdAt,value
2022-08-16T00:01:47.499Z,99953.69
2022-08-16T00:06:51.491Z,99943.47
2022-08-16T00:11:55.505Z,99916.78
2022-08-16T00:17:11.819Z,99930.94
2022-08-16T00:22:20.881Z,99897.31
2022-08-16T00:27:27.383Z,99828.25
2022-08-16T00:32:33.340Z,99864.44
2022-08-16T00:37:57.983Z,99962.94
2022-08-16T00:42:58.277Z,99934.22
2022-08-16T00:48:01.504Z,99946.88
2022-08-16T00:53:23.967Z,99953.09
2022-08-16T00:58:34.491Z,99941.91
2022-08-16T01:03:41.648Z,99961.94
2022-08-16T01:08:45.302Z,99947.28
2022-08-16T01:13:49.629Z,99874.53
2022-08-16T01:19:02.590Z,99948.56
2022-08-16T01:24:52.614Z,99964.25
2022-08-16T01:30:04.017Z,99873.69
2022-08-16T01:35:29.091Z,99932.16
2022-08-16T01:40:38.020Z,99949.09
2022-08-16T01:45:41.623Z,99939.72
2022-08-16T01:51:15.511Z,99939.78
2022-08-16T01:56:24.362Z,99939.44
2022-08-16T02:01:29.158Z,99956.41
2022-08-16T02:06:34.164Z,99889.56
2022-08-16T02:11:47.736Z,99974.16
2022-08-16T02:16:58.335Z,99971.56
2022-08-16T02:22:09.052Z,99933.47
2022-08-16T02:27:25.450Z,99913.38
2022-08-16T02:32:49.192Z,99884.91
2022-08-16T02:37:53.430Z,99958.09
2022-08-16T02:43:00.870Z,99963.28
2022-08-16T02:48:29.226Z,99894.59
2022-08-16T02:53:48.364Z,99976.47
2022-08-16T02:58:52.495Z,99959.91
2022-08-16T03:04:28.834Z,99983.56
2022-08-16T03:09:37.648Z,99935.75
2022-08-16T03:14:39.987Z,99963.63
2022-08-16T03:19:48.690Z,99975.03
2022-08-16T03:25:10.111Z,99918.53
2022-08-16T03:30:22.218Z,99905.41
2022-08-16T03:35:33.071Z,99918.59
2022-08-16T03:40:41.027Z,99968.03
2022-08-16T03:45:45.554Z,99944.38
2022-08-16T03:50:59.853Z,99973.03
2022-08-16T03:56:07.899Z,99988.41
2022-08-16T04:01:10.960Z,99955.19
2022-08-16T04:06:16.002Z,99867.94
2022-08-16T04:11:37.743Z,99931.16
2022-08-16T04:16:40.665Z,99982.91
2022-08-16T04:22:09.594Z,99978.31
2022-08-16T04:27:21.486Z,99927.44
2022-08-16T04:32:27.010Z,99967.03
2022-08-16T04:37:29.848Z,99891.28
2022-08-16T04:42:43.723Z,99916.03
2022-08-16T04:47:46.799Z,99982.50
2022-08-16T04:53:03.188Z,99981.25
2022-08-16T04:58:43.768Z,99935.84
2022-08-16T05:03:33.827Z,99995.19
2022-08-16T05:08:47.261Z,99971.06
2022-08-16T05:13:57.112Z,99925.47
2022-08-16T05:19:11.595Z,99964.88
2022-08-16T05:24:35.379Z,99943.25
2022-08-16T05:30:00.742Z,99985.53
2022-08-16T05:35:01.265Z,99992.09
2022-08-16T05:40:06.064Z,99974.22
2022-08-16T05:45:10.199Z,99982.31
2022-08-16T05:50:18.905Z,99900.84
2022-08-16T05:55:23.821Z,99984.28
2022-08-16T06:00:26.626Z,99904.56
2022-08-16T06:05:36.129Z,99947.97
2022-08-16T06:10:39.457Z,99957.91
2022-08-16T06:16:01.971Z,99924.13
2022-08-16T06:21:07.121Z,99954.81
2022-08-16T06:26:12.300Z,99950.91
2022-08-16T06:31:24.646Z,99924.19
2022-08-16T06:36:29.743Z,99948.44
2022-08-16T06:41:44.195Z,99922.19
2022-08-16T06:46:57.319Z,99975.00
2022-08-16T06:52:03.259Z,99935.28
2022-08-16T06:57:16.855Z,99953.94
2022-08-16T07:02:33.303Z,99963.44
2022-08-16T07:07:45.921Z,99862.22
2022-08-16T07:13:03.853Z,99957.91
2022-08-16T07:18:12.893Z,99879.53
2022-08-16T07:23:21.077Z,99958.06
2022-08-16T07:28:40.326Z,99903.72
2022-08-16T07:33:52.189Z,99989.31
2022-08-16T07:39:02.492Z,99969.47
2022-08-16T07:44:16.474Z,99982.63
2022-08-16T07:49:21.887Z,99971.69
2022-08-16T07:54:37.766Z,99957.38
2022-08-16T07:59:46.026Z,99927.75
2022-08-16T08:04:50.960Z,99935.75
2022-08-16T08:09:53.659Z,99948.63
2022-08-16T08:14:56.304Z,99943.72
2022-08-16T08:19:59.531Z,99888.41
2022-08-16T08:25:03.620Z,99970.69
2022-08-16T08:30:49.205Z,99944.25
2022-08-16T08:35:33.452Z,99892.84
2022-08-16T08:40:38.187Z,99914.59
2022-08-16T08:45:52.685Z,99930.38
2022-08-16T08:50:57.421Z,99913.78
2022-08-16T08:56:00.504Z,99946.53
2022-08-16T09:01:31.471Z,99925.97
2022-08-16T09:06:43.761Z,99887.09
2022-08-16T09:12:04.456Z,99883.34
2022-08-16T09:17:38.382Z,99912.25
2022-08-16T09:22:39.826Z,99932.13
2022-08-16T09:27:46.760Z,99936.38
2022-08-16T09:33:06.807Z,99971.50
2022-08-16T09:38:31.227Z,99924.03
2022-08-16T09:43:59.159Z,99947.63
2022-08-16T09:48:58.537Z,99877.88
2022-08-16T09:54:09.839Z,99951.22
2022-08-16T09:59:14.273Z,99924.28
2022-08-16T10:04:30.423Z,99905.41
2022-08-16T10:09:45.076Z,99901.34
2022-08-16T10:14:56.975Z,99905.09
2022-08-16T10:20:00.545Z,99900.94
2022-08-16T10:25:03.162Z,99933.84
2022-08-16T10:30:25.603Z,99898.91
2022-08-16T10:35:32.841Z,99856.91
2022-08-16T10:40:35.732Z,99852.97
2022-08-16T10:45:42.178Z,99935.22
2022-08-16T10:51:01.586Z,99884.69
2022-08-16T10:56:44.331Z,99934.94
2022-08-16T11:01:40.084Z,99928.53
2022-08-16T11:07:06.708Z,99895.09
2022-08-16T11:12:13.643Z,99879.69
2022-08-16T11:17:16.896Z,99926.63
2022-08-16T11:22:38.944Z,99857.28
2022-08-16T11:27:42.906Z,99882.75
2022-08-16T11:32:47.215Z,99894.16
2022-08-16T11:38:46.701Z,99908.56
2022-08-16T11:43:21.714Z,99906.16
2022-08-16T11:48:26.125Z,99884.94
2022-08-16T11:53:35.989Z,99905.94
2022-08-16T11:58:39.861Z,99863.31
2022-08-16T12:03:43.863Z,99848.56
2022-08-16T12:08:48.093Z,99859.16
2022-08-16T12:13:51.947Z,99872.09
2022-08-16T12:18:54.128Z,99841.09
2022-08-16T12:23:56.381Z,99832.72
2022-08-16T12:28:59.209Z,99847.72
2022-08-16T12:34:03.040Z,99872.81
2022-08-16T12:39:07.118Z,99872.34
2022-08-16T12:44:09.308Z,99858.56
2022-08-16T12:49:12.772Z,99842.75
2022-08-16T12:54:14.988Z,99845.53
2022-08-16T12:59:21.923Z,99828.66
2022-08-16T13:04:28.317Z,99748.28
2022-08-16T13:09:42.259Z,99788.53
2022-08-16T13:14:45.197Z,99787.69
2022-08-16T13:20:07.157Z,99841.47
2022-08-16T13:25:18.885Z,99830.81
2022-08-16T13:30:36.187Z,99834.69
2022-08-16T13:35:44.082Z,99834.25
2022-08-16T13:40:48.953Z,99798.75
2022-08-16T13:45:53.049Z,99747.13
2022-08-16T13:51:02.500Z,99808.19
2022-08-16T13:56:06.655Z,99797.00
2022-08-16T14:01:12.807Z,99801.84
2022-08-16T14:06:15.359Z,99775.38
2022-08-16T14:11:20.859Z,99794.97
2022-08-16T14:16:33.527Z,99726.13
2022-08-16T14:21:37.531Z,99798.44
2022-08-16T14:26:40.828Z,99735.59
2022-08-16T14:31:45.528Z,99787.66
2022-08-16T14:36:52.272Z,99781.97
2022-08-16T14:41:56.006Z,99683.13
2022-08-16T14:46:58.386Z,99756.34
2022-08-16T14:52:02.960Z,99748.16
2022-08-16T14:57:06.971Z,99778.25
2022-08-16T15:02:33.903Z,99757.38
2022-08-16T15:07:40.244Z,99702.78
2022-08-16T15:12:43.376Z,99766.44
2022-08-16T15:17:54.515Z,99763.19
2022-08-16T15:23:02.817Z,99793.28
2022-08-16T15:28:23.422Z,99760.13
2022-08-16T15:33:32.080Z,99771.69
2022-08-16T15:38:57.300Z,99717.09
2022-08-16T15:44:05.588Z,99642.16
2022-08-16T15:49:16.986Z,99737.38
2022-08-16T15:54:52.794Z,99784.44
2022-08-16T16:00:04.831Z,99684.19
2022-08-16T16:05:37.657Z,99766.63
2022-08-16T16:10:41.718Z,99761.09
2022-08-16T16:16:03.425Z,99785.00
2022-08-16T16:21:27.335Z,99761.00
2022-08-16T16:26:48.850Z,99755.16
2022-08-16T16:31:59.171Z,99757.50
2022-08-16T16:37:22.793Z,99750.31
2022-08-16T16:42:29.927Z,99732.94
2022-08-16T16:47:40.577Z,99752.59
2022-08-16T16:53:03.209Z,99748.63
2022-08-16T16:58:57.192Z,99768.00
2022-08-16T17:04:13.239Z,99801.97
2022-08-16T17:09:21.844Z,99772.34
2022-08-16T17:14:33.340Z,99775.75
2022-08-16T17:19:40.971Z,99742.00
2022-08-16T17:24:50.499Z,99783.34
2022-08-16T17:29:54.621Z,99764.69
2022-08-16T17:35:19.170Z,99727.34
2022-08-16T17:40:46.766Z,99814.34
2022-08-16T17:45:49.420Z,99703.84
2022-08-16T17:50:54.545Z,99748.72
2022-08-16T17:55:57.315Z,99778.41
2022-08-16T18:01:20.609Z,99762.41
2022-08-16T18:06:28.541Z,99771.88
2022-08-16T18:11:34.120Z,99735.00
2022-08-16T18:16:36.481Z,99778.50
2022-08-16T18:21:57.096Z,99814.34
2022-08-16T18:27:25.662Z,99787.28
2022-08-16T18:32:25.214Z,99800.78
2022-08-16T18:37:27.877Z,99768.09
2022-08-16T18:42:30.304Z,99716.75
2022-08-16T18:47:32.676Z,99730.16
2022-08-16T18:52:35.193Z,99763.31
2022-08-16T18:57:37.576Z,99749.81
2022-08-16T19:02:56.082Z,99805.66
2022-08-16T19:08:02.612Z,99746.31
2022-08-16T19:13:14.112Z,99798.63
2022-08-16T19:18:36.868Z,99773.81
2022-08-16T19:23:57.999Z,99786.63
2022-08-16T19:29:03.721Z,99759.50
2022-08-16T19:34:29.541Z,99753.50
2022-08-16T19:39:50.943Z,99780.13
2022-08-16T19:44:55.845Z,99770.97
2022-08-16T19:49:58.566Z,99768.66
2022-08-16T19:55:06.727Z,99787.41
2022-08-16T20:00:14.203Z,99783.44
2022-08-16T20:05:33.101Z,99798.06
2022-08-16T20:10:54.001Z,99743.31
2022-08-16T20:15:57.200Z,99749.03
2022-08-16T20:20:59.641Z,99748.53
2022-08-16T20:26:02.076Z,99700.13
2022-08-16T20:31:04.543Z,99761.91
2022-08-16T20:36:07.113Z,99754.47
2022-08-16T20:41:28.217Z,99759.00
2022-08-16T20:46:30.607Z,99717.00
2022-08-16T20:51:32.914Z,99755.44
2022-08-16T20:56:50.008Z,99786.81
2022-08-16T21:02:16.196Z,99781.00
2022-08-16T21:07:19.913Z,99772.50
2022-08-16T21:12:22.234Z,99734.50
2022-08-16T21:17:24.605Z,99749.63
2022-08-16T21:22:27.088Z,99723.00
2022-08-16T21:27:29.424Z,99781.28
2022-08-16T21:32:35.542Z,99747.69
2022-08-16T21:37:38.625Z,99698.38
2022-08-16T21:42:42.231Z,99779.50
2022-08-16T21:47:44.624Z,99747.25
2022-08-16T21:52:46.910Z,99763.09
2022-08-16T21:57:49.232Z,99783.81
2022-08-16T22:02:55.532Z,99739.84
2022-08-16T22:08:01.294Z,99745.91
2022-08-16T22:13:16.169Z,99701.78
2022-08-16T22:18:19.390Z,99785.50
2022-08-16T22:23:24.669Z,99697.59
2022-08-16T22:28:26.943Z,99730.81
2022-08-16T22:33:29.300Z,99788.06
2022-08-16T22:38:54.070Z,99782.91
2022-08-16T22:43:56.422Z,99788.47
2022-08-16T22:49:17.658Z,99747.06
2022-08-16T22:54:48.161Z,99764.03
2022-08-16T22:59:52.686Z,99750.34
2022-08-16T23:05:19.982Z,99793.88
2022-08-16T23:10:22.779Z,99750.88
2022-08-16T23:15:28.009Z,99799.88
2022-08-16T23:20:30.327Z,99737.38
2022-08-16T23:25:35.803Z,99793.00
2022-08-16T23:30:40.818Z,99792.28
2022-08-16T23:35:46.124Z,99721.25
2022-08-16T23:41:13.424Z,99749.47
2022-08-16T23:46:18.194Z,99785.22
2022-08-16T23:51:20.473Z,99772.63
2022-08-16T23:56:22.887Z,99711.13
